createdAt,value
2017-09-19T00:00:20.549Z,0
2017-09-19T00:01:21.186Z,0
2017-09-19T00:02:21.091Z,0
2017-09-19T00:03:20.776Z,0
2017-09-19T00:04:20.847Z,0
2017-09-19T00:05:21.037Z,0
2017-09-19T00:06:20.903Z,0
2017-09-19T00:07:20.974Z,0
2017-09-19T00:08:20.524Z,0
2017-09-19T00:09:20.913Z,0
2017-09-19T00:10:20.776Z,0
2017-09-19T00:11:20.941Z,0
2017-09-19T00:12:20.883Z,0
2017-09-19T00:13:20.476Z,0
2017-09-19T00:14:20.471Z,0
2017-09-19T00:15:20.847Z,0
2017-09-19T00:16:21.159Z,0
2017-09-19T00:17:20.365Z,0
2017-09-19T00:18:21.137Z,0
2017-09-19T00:19:20.707Z,0
2017-09-19T00:20:21.292Z,0
2017-09-19T00:21:20.608Z,0
2017-09-19T00:22:20.676Z,0
2017-09-19T00:23:20.621Z,0
2017-09-19T00:24:20.635Z,0
2017-09-19T00:25:20.157Z,0
2017-09-19T00:26:20.452Z,0
2017-09-19T00:27:20.429Z,0
2017-09-19T00:28:20.431Z,0
2017-09-19T00:29:20.433Z,0
2017-09-19T00:30:20.712Z,0
2017-09-19T00:31:20.379Z,0
2017-09-19T00:32:20.300Z,0
2017-09-19T00:33:20.577Z,0
2017-09-19T00:34:20.354Z,0
2017-09-19T00:35:20.704Z,0
2017-09-19T00:36:20.304Z,0
2017-09-19T00:37:20.298Z,0
2017-09-19T00:38:19.955Z,0
2017-09-19T00:39:20.286Z,0
2017-09-19T00:40:20.267Z,0
2017-09-19T00:41:20.263Z,0
2017-09-19T00:42:20.250Z,0
2017-09-19T00:43:20.255Z,0
2017-09-19T00:44:20.200Z,0
2017-09-19T00:45:20.189Z,0
2017-09-19T00:46:19.844Z,0
2017-09-19T00:47:20.174Z,0
2017-09-19T00:48:20.149Z,0
2017-09-19T00:49:19.815Z,0
2017-09-19T00:50:20.455Z,0
2017-09-19T00:51:20.118Z,0
2017-09-19T00:52:20.762Z,0
2017-09-19T00:53:19.751Z,0
2017-09-19T00:54:20.076Z,0
2017-09-19T00:55:19.723Z,0
2017-09-19T00:56:20.043Z,0
2017-09-19T00:57:19.727Z,0
2017-09-19T00:58:20.681Z,0
2017-09-19T00:59:20.043Z,0
2017-09-19T01:00:19.989Z,0
2017-09-19T01:01:19.649Z,0
2017-09-19T01:02:19.663Z,0
2017-09-19T01:03:19.944Z,0
2017-09-19T01:04:19.624Z,0
2017-09-19T01:05:19.925Z,0
2017-09-19T01:06:19.909Z,0
2017-09-19T01:07:20.245Z,0
2017-09-19T01:08:19.889Z,0
2017-09-19T01:09:20.189Z,0
2017-09-19T01:10:19.529Z,0
2017-09-19T01:11:19.852Z,0
2017-09-19T01:12:19.839Z,0
2017-09-19T01:13:19.857Z,0
2017-09-19T01:14:20.157Z,0
2017-09-19T01:15:19.787Z,0
2017-09-19T01:16:19.443Z,0
2017-09-19T01:17:19.431Z,0
2017-09-19T01:18:20.074Z,0
2017-09-19T01:19:19.748Z,0
2017-09-19T01:20:19.724Z,0
2017-09-19T01:21:19.710Z,0
2017-09-19T01:22:19.699Z,0
2017-09-19T01:23:19.689Z,0
2017-09-19T01:24:20.000Z,0
2017-09-19T01:25:19.329Z,0
2017-09-19T01:26:19.321Z,0
2017-09-19T01:27:19.296Z,0
2017-09-19T01:28:19.637Z,0
2017-09-19T01:29:19.603Z,0
2017-09-19T01:30:19.254Z,0
2017-09-19T01:31:19.910Z,0
2017-09-19T01:32:19.583Z,0
2017-09-19T01:33:19.584Z,0
2017-09-19T01:34:19.202Z,0
2017-09-19T01:35:19.848Z,0
2017-09-19T01:36:19.174Z,0
2017-09-19T01:37:19.508Z,0
2017-09-19T01:38:19.475Z,0
2017-09-19T01:39:19.792Z,0
2017-09-19T01:40:19.126Z,0
2017-09-19T01:41:19.449Z,0
2017-09-19T01:42:19.437Z,0
2017-09-19T01:43:19.765Z,0
2017-09-19T01:44:19.395Z,0
2017-09-19T01:45:19.382Z,0
2017-09-19T01:46:19.736Z,0
2017-09-19T01:47:20.033Z,0
2017-09-19T01:48:19.016Z,0
2017-09-19T01:49:19.669Z,0
2017-09-19T01:50:18.986Z,0
2017-09-19T01:51:18.991Z,0
2017-09-19T01:52:19.297Z,0
2017-09-19T01:53:27.564Z,0
2017-09-19T01:54:19.604Z,0
2017-09-19T01:55:18.922Z,0
2017-09-19T01:56:19.232Z,0
2017-09-19T01:57:19.271Z,0
2017-09-19T01:58:19.571Z,0
2017-09-19T01:59:19.852Z,0
2017-09-19T02:00:19.186Z,0
2017-09-19T02:01:18.838Z,0
2017-09-19T02:02:19.486Z,0
2017-09-19T02:03:18.810Z,0
2017-09-19T02:04:19.127Z,0
2017-09-19T02:05:19.117Z,0
2017-09-19T02:06:19.096Z,0
2017-09-19T02:07:18.773Z,0
2017-09-19T02:08:19.405Z,0
2017-09-19T02:09:19.057Z,0
2017-09-19T02:10:19.050Z,0
2017-09-19T02:11:19.684Z,0
2017-09-19T02:12:19.018Z,0
2017-09-19T02:13:19.354Z,0
2017-09-19T02:14:19.655Z,0
2017-09-19T02:15:18.670Z,0
2017-09-19T02:16:19.319Z,0
2017-09-19T02:17:18.980Z,0
2017-09-19T02:18:19.284Z,0
2017-09-19T02:19:18.933Z,0
2017-09-19T02:20:19.236Z,0
2017-09-19T02:21:18.585Z,0
2017-09-19T02:22:18.884Z,0
2017-09-19T02:23:19.559Z,0
2017-09-19T02:24:18.862Z,0
2017-09-19T02:25:18.857Z,0
2017-09-19T02:26:18.826Z,0
2017-09-19T02:27:18.823Z,0
2017-09-19T02:28:19.158Z,0
2017-09-19T02:29:18.481Z,0
2017-09-19T02:30:19.116Z,0
2017-09-19T02:31:18.450Z,0
2017-09-19T02:32:19.078Z,0
2017-09-19T02:33:19.076Z,0
2017-09-19T02:34:18.734Z,0
2017-09-19T02:35:18.725Z,0
2017-09-19T02:36:18.713Z,0
2017-09-19T02:37:19.009Z,0
2017-09-19T02:38:18.350Z,0
2017-09-19T02:39:18.992Z,0
2017-09-19T02:40:18.960Z,0
2017-09-19T02:41:18.994Z,0
2017-09-19T02:42:18.276Z,0
2017-09-19T02:43:18.616Z,0
2017-09-19T02:44:18.577Z,0
2017-09-19T02:45:18.569Z,0
2017-09-19T02:46:18.228Z,0
2017-09-19T02:47:19.627Z,0
2017-09-19T02:48:18.211Z,0
2017-09-19T02:49:18.517Z,0
2017-09-19T02:50:18.188Z,0
2017-09-19T02:51:18.812Z,0
2017-09-19T02:52:18.486Z,0
2017-09-19T02:53:18.462Z,0
2017-09-19T02:54:18.773Z,0
2017-09-19T02:55:18.427Z,0
2017-09-19T02:56:18.420Z,0
2017-09-19T02:57:18.403Z,0
2017-09-19T02:58:19.047Z,0
2017-09-19T02:59:18.376Z,0
2017-09-19T03:00:18.368Z,0
2017-09-19T03:01:18.023Z,0
2017-09-19T03:02:18.013Z,0
2017-09-19T03:03:18.341Z,0
2017-09-19T03:04:18.968Z,0
2017-09-19T03:05:17.967Z,0
2017-09-19T03:06:18.279Z,0
2017-09-19T03:07:18.268Z,0
2017-09-19T03:08:17.957Z,0
2017-09-19T03:09:18.238Z,0
2017-09-19T03:10:18.229Z,0
2017-09-19T03:11:17.886Z,0
2017-09-19T03:12:18.199Z,0
2017-09-19T03:13:17.861Z,0
2017-09-19T03:14:18.506Z,0
2017-09-19T03:15:18.664Z,0
2017-09-19T03:16:18.147Z,0
2017-09-19T03:17:18.481Z,0
2017-09-19T03:18:17.826Z,0
2017-09-19T03:19:17.778Z,0
2017-09-19T03:20:18.112Z,0
2017-09-19T03:21:17.867Z,0
2017-09-19T03:22:18.418Z,0
2017-09-19T03:23:18.053Z,0
2017-09-19T03:24:17.708Z,0
2017-09-19T03:25:17.715Z,0
2017-09-19T03:26:18.338Z,0
2017-09-19T03:27:17.671Z,0
2017-09-19T03:28:17.660Z,0
2017-09-19T03:29:17.644Z,0
2017-09-19T03:30:18.304Z,0
2017-09-19T03:31:17.633Z,0
2017-09-19T03:32:18.257Z,0
2017-09-19T03:33:17.921Z,0
2017-09-19T03:34:17.906Z,0
2017-09-19T03:35:17.571Z,0
2017-09-19T03:36:17.891Z,0
2017-09-19T03:37:18.204Z,0
2017-09-19T03:38:17.538Z,0
2017-09-19T03:39:17.864Z,0
2017-09-19T03:40:18.154Z,0
2017-09-19T03:41:17.482Z,0
2017-09-19T03:42:17.501Z,0
2017-09-19T03:43:17.783Z,0
2017-09-19T03:44:17.450Z,0
2017-09-19T03:45:17.787Z,0
2017-09-19T03:46:18.084Z,0
2017-09-19T03:47:17.728Z,0
2017-09-19T03:48:17.418Z,0
2017-09-19T03:49:17.700Z,0
2017-09-19T03:50:17.705Z,0
2017-09-19T03:51:18.011Z,0
2017-09-19T03:52:17.671Z,0
2017-09-19T03:53:17.982Z,0
2017-09-19T03:54:17.666Z,0
2017-09-19T03:55:17.637Z,0
2017-09-19T03:56:17.606Z,0
2017-09-19T03:57:17.597Z,0
2017-09-19T03:58:17.250Z,0
2017-09-19T03:59:17.236Z,0
2017-09-19T04:00:17.888Z,0
2017-09-19T04:01:17.885Z,0
2017-09-19T04:02:17.207Z,0
2017-09-19T04:03:17.529Z,0
2017-09-19T04:04:17.169Z,0
2017-09-19T04:05:17.495Z,0
2017-09-19T04:06:17.503Z,0
2017-09-19T04:07:18.017Z,0
2017-09-19T04:08:17.441Z,0
2017-09-19T04:09:17.466Z,0
2017-09-19T04:10:17.416Z,0
2017-09-19T04:11:17.071Z,0
2017-09-19T04:12:18.056Z,0
2017-09-19T04:13:17.384Z,0
2017-09-19T04:14:17.030Z,0
2017-09-19T04:15:17.351Z,0
2017-09-19T04:16:17.356Z,0
2017-09-19T04:17:17.323Z,0
2017-09-19T04:18:17.300Z,0
2017-09-19T04:19:16.963Z,0
2017-09-19T04:20:17.631Z,0
2017-09-19T04:21:17.281Z,0
2017-09-19T04:22:16.917Z,0
2017-09-19T04:23:17.575Z,4
2017-09-19T04:24:16.891Z,4
2017-09-19T04:25:17.206Z,0
2017-09-19T04:26:17.519Z,4
2017-09-19T04:27:17.515Z,4
2017-09-19T04:28:17.497Z,4
2017-09-19T04:29:17.505Z,8
2017-09-19T04:30:16.805Z,8
2017-09-19T04:31:16.811Z,12
2017-09-19T04:32:17.104Z,12
2017-09-19T04:33:16.768Z,12
2017-09-19T04:34:16.774Z,16
2017-09-19T04:35:16.745Z,20
2017-09-19T04:36:17.398Z,20
2017-09-19T04:37:17.373Z,24
2017-09-19T04:38:17.030Z,28
2017-09-19T04:39:17.342Z,32
2017-09-19T04:40:17.014Z,40
2017-09-19T04:41:16.989Z,44
2017-09-19T04:42:17.320Z,52
2017-09-19T04:43:16.977Z,60
2017-09-19T04:44:16.627Z,64
2017-09-19T04:45:17.253Z,76
2017-09-19T04:46:16.913Z,84
2017-09-19T04:47:16.570Z,92
2017-09-19T04:48:16.882Z,104
2017-09-19T04:49:16.543Z,120
2017-09-19T04:50:16.529Z,128
2017-09-19T04:51:16.513Z,144
2017-09-19T04:52:16.499Z,160
2017-09-19T04:53:17.143Z,176
2017-09-19T04:54:16.835Z,196
2017-09-19T04:55:17.125Z,216
2017-09-19T04:56:16.770Z,240
2017-09-19T04:57:17.082Z,268
2017-09-19T04:58:16.742Z,292
2017-09-19T04:59:16.749Z,320
2017-09-19T05:00:16.716Z,344
2017-09-19T05:01:17.365Z,372
2017-09-19T05:02:16.730Z,400
2017-09-19T05:03:16.364Z,444
2017-09-19T05:04:16.989Z,488
2017-09-19T05:05:16.650Z,532
2017-09-19T05:06:16.631Z,576
2017-09-19T05:07:17.279Z,608
2017-09-19T05:08:16.942Z,620
2017-09-19T05:09:16.596Z,632
2017-09-19T05:10:16.575Z,648
2017-09-19T05:11:16.245Z,672
2017-09-19T05:12:16.220Z,700
2017-09-19T05:13:16.534Z,736
2017-09-19T05:14:16.194Z,772
2017-09-19T05:15:16.832Z,832
2017-09-19T05:16:16.164Z,888
2017-09-19T05:17:16.147Z,932
2017-09-19T05:18:16.792Z,968
2017-09-19T05:19:16.781Z,1016
2017-09-19T05:20:16.433Z,1060
2017-09-19T05:21:16.762Z,1096
2017-09-19T05:22:16.082Z,1160
2017-09-19T05:23:16.413Z,1196
2017-09-19T05:24:16.385Z,1252
2017-09-19T05:25:16.365Z,1340
2017-09-19T05:26:16.025Z,1384
2017-09-19T05:27:16.341Z,1436
2017-09-19T05:28:16.335Z,1516
2017-09-19T05:29:16.310Z,1508
2017-09-19T05:30:15.971Z,1508
2017-09-19T05:31:15.954Z,1572
2017-09-19T05:32:15.947Z,1632
2017-09-19T05:33:16.621Z,1688
2017-09-19T05:34:16.571Z,1812
2017-09-19T05:35:16.238Z,1960
2017-09-19T05:36:16.234Z,2116
2017-09-19T05:37:15.870Z,2220
2017-09-19T05:38:15.858Z,2300
2017-09-19T05:39:16.180Z,2368
2017-09-19T05:40:16.484Z,2384
2017-09-19T05:41:16.796Z,2492
2017-09-19T05:42:15.817Z,2496
2017-09-19T05:43:16.449Z,2528
2017-09-19T05:44:16.441Z,2576
2017-09-19T05:45:15.761Z,2632
2017-09-19T05:46:15.749Z,2680
2017-09-19T05:47:16.390Z,2744
2017-09-19T05:48:16.379Z,2836
2017-09-19T05:49:16.361Z,2960
2017-09-19T05:50:16.031Z,2920
2017-09-19T05:51:16.342Z,2788
2017-09-19T05:52:15.992Z,2704
2017-09-19T05:53:16.302Z,2704
2017-09-19T05:54:15.643Z,2660
2017-09-19T05:55:15.954Z,2680
2017-09-19T05:56:16.609Z,2704
2017-09-19T05:57:15.596Z,2716
2017-09-19T05:58:15.599Z,2716
2017-09-19T05:59:15.572Z,2604
2017-09-19T06:00:16.222Z,2768
2017-09-19T06:01:15.544Z,2600
2017-09-19T06:02:16.192Z,2364
2017-09-19T06:03:15.884Z,2336
2017-09-19T06:04:15.861Z,2512
2017-09-19T06:05:15.494Z,2596
2017-09-19T06:06:15.841Z,2720
2017-09-19T06:07:15.803Z,2736
2017-09-19T06:08:16.111Z,2692
2017-09-19T06:09:15.827Z,2648
2017-09-19T06:10:15.431Z,2512
2017-09-19T06:11:15.746Z,2740
2017-09-19T06:12:15.756Z,2856
2017-09-19T06:13:15.397Z,2976
2017-09-19T06:14:15.711Z,3052
2017-09-19T06:15:15.704Z,3136
2017-09-19T06:16:15.696Z,3136
2017-09-19T06:17:15.346Z,3008
2017-09-19T06:18:15.683Z,2924
2017-09-19T06:19:15.326Z,2944
2017-09-19T06:20:15.309Z,3096
2017-09-19T06:21:15.636Z,3364
2017-09-19T06:22:15.287Z,3568
2017-09-19T06:23:15.599Z,3780
2017-09-19T06:24:15.594Z,3980
2017-09-19T06:25:20.637Z,4156
2017-09-19T06:26:15.902Z,4272
2017-09-19T06:27:15.232Z,4412
2017-09-19T06:28:15.874Z,4596
2017-09-19T06:29:15.528Z,4540
2017-09-19T06:30:15.862Z,4596
2017-09-19T06:31:15.195Z,4660
2017-09-19T06:32:15.856Z,4716
2017-09-19T06:33:15.484Z,4764
2017-09-19T06:34:15.473Z,4756
2017-09-19T06:35:15.457Z,4840
2017-09-19T06:36:15.471Z,4836
2017-09-19T06:37:15.466Z,4772
2017-09-19T06:38:15.441Z,4744
2017-09-19T06:39:15.415Z,4860
2017-09-19T06:40:15.082Z,4988
2017-09-19T06:41:15.717Z,5112
2017-09-19T06:42:15.053Z,5192
2017-09-19T06:43:15.389Z,5256
2017-09-19T06:44:16.012Z,5260
2017-09-19T06:45:15.675Z,5344
2017-09-19T06:46:15.010Z,5440
2017-09-19T06:47:15.693Z,5028
2017-09-19T06:48:14.981Z,4892
2017-09-19T06:49:15.298Z,5020
2017-09-19T06:50:15.290Z,5216
2017-09-19T06:51:15.608Z,5388
2017-09-19T06:52:14.949Z,5644
2017-09-19T06:53:15.254Z,5700
2017-09-19T06:54:15.272Z,5692
2017-09-19T06:55:15.239Z,5712
2017-09-19T06:56:15.250Z,5488
2017-09-19T06:57:15.545Z,5120
2017-09-19T06:58:15.535Z,4996
2017-09-19T06:59:14.865Z,5108
2017-09-19T07:00:15.204Z,5148
2017-09-19T07:01:15.175Z,5248
2017-09-19T07:02:15.828Z,5388
2017-09-19T07:03:15.498Z,5564
2017-09-19T07:04:15.475Z,5724
2017-09-19T07:05:15.490Z,5816
2017-09-19T07:06:15.121Z,5784
2017-09-19T07:07:15.468Z,5748
2017-09-19T07:08:14.794Z,5948
2017-09-19T07:09:15.759Z,6200
2017-09-19T07:10:15.413Z,6564
2017-09-19T07:11:15.072Z,6892
2017-09-19T07:12:15.069Z,7076
2017-09-19T07:13:15.750Z,7068
2017-09-19T07:14:14.730Z,6940
2017-09-19T07:15:15.051Z,6880
2017-09-19T07:16:14.699Z,6920
2017-09-19T07:17:15.039Z,6944
2017-09-19T07:18:15.030Z,7016
2017-09-19T07:19:14.999Z,7180
2017-09-19T07:20:14.986Z,7172
2017-09-19T07:21:14.656Z,7108
2017-09-19T07:22:15.628Z,7092
2017-09-19T07:23:14.646Z,7068
2017-09-19T07:24:14.627Z,7116
2017-09-19T07:25:14.619Z,7196
2017-09-19T07:26:15.262Z,7332
2017-09-19T07:27:14.601Z,7496
2017-09-19T07:28:14.936Z,7640
2017-09-19T07:29:14.582Z,7752
2017-09-19T07:30:15.563Z,7852
2017-09-19T07:31:14.567Z,7856
2017-09-19T07:32:14.905Z,7896
2017-09-19T07:33:14.878Z,8032
2017-09-19T07:34:14.544Z,8128
2017-09-19T07:35:14.855Z,7916
2017-09-19T07:36:14.846Z,8088
2017-09-19T07:37:14.535Z,8056
2017-09-19T07:38:14.499Z,8128
2017-09-19T07:39:14.700Z,8232
2017-09-19T07:40:14.492Z,8236
2017-09-19T07:41:15.137Z,8312
2017-09-19T07:42:15.123Z,8556
2017-09-19T07:43:15.118Z,8816
2017-09-19T07:44:14.817Z,9184
2017-09-19T07:45:15.166Z,9592
2017-09-19T07:46:14.438Z,9804
2017-09-19T07:47:14.783Z,10184
2017-09-19T07:48:14.780Z,10116
2017-09-19T07:49:14.445Z,10008
2017-09-19T07:50:15.403Z,10132
2017-09-19T07:51:14.738Z,9916
2017-09-19T07:52:14.718Z,9316
2017-09-19T07:53:15.057Z,8784
2017-09-19T07:54:14.726Z,8372
2017-09-19T07:55:14.704Z,8144
2017-09-19T07:56:14.383Z,8080
2017-09-19T07:57:14.698Z,7932
2017-09-19T07:58:14.676Z,7708
2017-09-19T07:59:14.339Z,7624
2017-09-19T08:00:14.668Z,7112
2017-09-19T08:01:14.345Z,6840
2017-09-19T08:02:14.313Z,6540
2017-09-19T08:03:14.642Z,6300
2017-09-19T08:04:14.313Z,6164
2017-09-19T08:05:15.009Z,5892
2017-09-19T08:06:14.630Z,5532
2017-09-19T08:07:14.643Z,5248
2017-09-19T08:08:14.969Z,5540
2017-09-19T08:09:14.932Z,5092
2017-09-19T08:10:14.931Z,5140
2017-09-19T08:11:14.586Z,5300
2017-09-19T08:12:14.596Z,5224
2017-09-19T08:13:14.571Z,5584
2017-09-19T08:14:14.247Z,5592
2017-09-19T08:15:14.244Z,5872
2017-09-19T08:16:14.557Z,6292
2017-09-19T08:17:14.218Z,6700
2017-09-19T08:18:14.859Z,7032
2017-09-19T08:19:14.528Z,7136
2017-09-19T08:20:14.525Z,6996
2017-09-19T08:21:14.857Z,6748
2017-09-19T08:22:14.511Z,6596
2017-09-19T08:23:14.173Z,6444
2017-09-19T08:24:14.166Z,6344
2017-09-19T08:25:14.485Z,6384
2017-09-19T08:26:14.483Z,6344
2017-09-19T08:27:14.804Z,6356
2017-09-19T08:28:14.796Z,5924
2017-09-19T08:29:14.462Z,5768
2017-09-19T08:30:14.455Z,5628
2017-09-19T08:31:14.994Z,5268
2017-09-19T08:32:14.441Z,4708
2017-09-19T08:33:14.435Z,4216
2017-09-19T08:34:14.751Z,3960
2017-09-19T08:35:15.132Z,3672
2017-09-19T08:36:14.084Z,3412
2017-09-19T08:37:14.417Z,3248
2017-09-19T08:38:14.089Z,3316
2017-09-19T08:39:14.391Z,3284
2017-09-19T08:40:14.394Z,3092
2017-09-19T08:41:14.055Z,3172
2017-09-19T08:42:14.711Z,3384
2017-09-19T08:43:14.371Z,3412
2017-09-19T08:44:14.360Z,3368
2017-09-19T08:45:14.699Z,3288
2017-09-19T08:46:14.341Z,3352
2017-09-19T08:47:14.664Z,3340
2017-09-19T08:48:14.363Z,3304
2017-09-19T08:49:14.325Z,3240
2017-09-19T08:50:15.000Z,2900
2017-09-19T08:51:14.330Z,3084
2017-09-19T08:52:14.299Z,3028
2017-09-19T08:53:14.310Z,2984
2017-09-19T08:54:13.976Z,3004
2017-09-19T08:55:14.287Z,2980
2017-09-19T08:56:14.270Z,3164
2017-09-19T08:57:14.950Z,3496
2017-09-19T08:58:13.932Z,3548
2017-09-19T08:59:14.599Z,3556
2017-09-19T09:00:14.242Z,3584
2017-09-19T09:01:13.906Z,3232
2017-09-19T09:02:14.263Z,3216
2017-09-19T09:03:14.223Z,3148
2017-09-19T09:04:14.545Z,3084
2017-09-19T09:05:14.542Z,3056
2017-09-19T09:06:13.887Z,3144
2017-09-19T09:07:13.860Z,3260
2017-09-19T09:08:13.855Z,3308
2017-09-19T09:09:14.178Z,3360
2017-09-19T09:10:14.844Z,3492
2017-09-19T09:11:14.486Z,3784
2017-09-19T09:12:14.504Z,4172
2017-09-19T09:13:14.149Z,4624
2017-09-19T09:14:14.140Z,5184
2017-09-19T09:15:13.800Z,5836
2017-09-19T09:16:13.794Z,6508
2017-09-19T09:17:13.799Z,7076
2017-09-19T09:18:14.147Z,7576
2017-09-19T09:19:13.810Z,7724
2017-09-19T09:20:14.123Z,8272
2017-09-19T09:21:13.773Z,8060
2017-09-19T09:22:14.094Z,8288
2017-09-19T09:23:14.403Z,8776
2017-09-19T09:24:14.098Z,8992
2017-09-19T09:25:14.260Z,8728
2017-09-19T09:26:13.716Z,8780
2017-09-19T09:27:14.042Z,9248
2017-09-19T09:28:23.126Z,10024
2017-09-19T09:29:13.693Z,9776
2017-09-19T09:30:13.707Z,9612
2017-09-19T09:31:14.016Z,9380
2017-09-19T09:32:13.678Z,9064
2017-09-19T09:33:13.993Z,8136
2017-09-19T09:34:14.012Z,7800
2017-09-19T09:35:13.987Z,7720
2017-09-19T09:36:13.991Z,8128
2017-09-19T09:37:13.988Z,8636
2017-09-19T09:38:18.700Z,8956
2017-09-19T09:39:13.955Z,9408
2017-09-19T09:40:14.291Z,9588
2017-09-19T09:41:13.948Z,9728
2017-09-19T09:42:13.937Z,9516
2017-09-19T09:43:13.940Z,9300
2017-09-19T09:44:13.930Z,8812
2017-09-19T09:45:13.607Z,8280
2017-09-19T09:46:13.623Z,7876
2017-09-19T09:47:13.909Z,7476
2017-09-19T09:48:13.582Z,7124
2017-09-19T09:49:13.893Z,6956
2017-09-19T09:50:13.564Z,6900
2017-09-19T09:51:13.886Z,6768
2017-09-19T09:52:13.552Z,6536
2017-09-19T09:53:13.542Z,6452
2017-09-19T09:54:13.904Z,6300
2017-09-19T09:55:14.217Z,6320
2017-09-19T09:56:14.222Z,6528
2017-09-19T09:57:14.195Z,6736
2017-09-19T09:58:14.517Z,6812
2017-09-19T09:59:13.836Z,7012
2017-09-19T10:00:13.824Z,7284
2017-09-19T10:01:13.822Z,7428
2017-09-19T10:02:14.153Z,7844
2017-09-19T10:03:13.830Z,8296
2017-09-19T10:04:13.828Z,8520
2017-09-19T10:05:13.799Z,8740
2017-09-19T10:06:13.479Z,9208
2017-09-19T10:07:13.459Z,9192
2017-09-19T10:08:13.782Z,9292
2017-09-19T10:09:14.101Z,9736
2017-09-19T10:10:13.447Z,10076
2017-09-19T10:11:13.775Z,10008
2017-09-19T10:12:13.775Z,9804
2017-09-19T10:13:13.771Z,9712
2017-09-19T10:14:14.096Z,9744
2017-09-19T10:15:13.411Z,10040
2017-09-19T10:16:13.735Z,10632
2017-09-19T10:17:13.726Z,10576
2017-09-19T10:18:13.394Z,10184
2017-09-19T10:19:14.069Z,10016
2017-09-19T10:20:13.706Z,9912
2017-09-19T10:21:13.721Z,9776
2017-09-19T10:22:13.730Z,9512
2017-09-19T10:23:13.383Z,9244
2017-09-19T10:24:13.370Z,8836
2017-09-19T10:25:13.347Z,8476
2017-09-19T10:26:14.004Z,8060
2017-09-19T10:27:13.369Z,7956
2017-09-19T10:28:13.673Z,7704
2017-09-19T10:29:13.687Z,7576
2017-09-19T10:30:13.678Z,7416
2017-09-19T10:31:13.666Z,7084
2017-09-19T10:32:13.670Z,6776
2017-09-19T10:33:13.697Z,6652
2017-09-19T10:34:13.637Z,6408
2017-09-19T10:35:13.629Z,6208
2017-09-19T10:36:13.298Z,5920
2017-09-19T10:37:13.951Z,5808
2017-09-19T10:38:13.944Z,5700
2017-09-19T10:39:13.284Z,5816
2017-09-19T10:40:13.278Z,6060
2017-09-19T10:41:13.608Z,6428
2017-09-19T10:42:13.596Z,6868
2017-09-19T10:43:13.592Z,7360
2017-09-19T10:44:13.586Z,7576
2017-09-19T10:45:13.584Z,7792
2017-09-19T10:46:13.573Z,8116
2017-09-19T10:47:13.573Z,8144
2017-09-19T10:48:13.573Z,8132
2017-09-19T10:49:13.589Z,8072
2017-09-19T10:50:13.902Z,8316
2017-09-19T10:51:13.553Z,8536
2017-09-19T10:52:14.229Z,8840
2017-09-19T10:53:13.552Z,8980
2017-09-19T10:54:13.210Z,9060
2017-09-19T10:55:13.879Z,8952
2017-09-19T10:56:13.221Z,8944
2017-09-19T10:57:18.695Z,9048
2017-09-19T10:58:13.513Z,9260
2017-09-19T10:59:13.187Z,9500
2017-09-19T11:00:13.189Z,9932
2017-09-19T11:01:13.502Z,10256
2017-09-19T11:02:13.513Z,10452
2017-09-19T11:03:13.189Z,10792
2017-09-19T11:04:13.164Z,10876
2017-09-19T11:05:13.501Z,10948
2017-09-19T11:06:13.478Z,11144
2017-09-19T11:07:13.472Z,11372
2017-09-19T11:08:13.806Z,11432
2017-09-19T11:09:13.799Z,11428
2017-09-19T11:10:13.462Z,11332
2017-09-19T11:11:13.779Z,11268
2017-09-19T11:12:13.442Z,11368
2017-09-19T11:13:13.437Z,11496
2017-09-19T11:14:13.112Z,11676
2017-09-19T11:15:13.796Z,12016
2017-09-19T11:16:13.748Z,12040
2017-09-19T11:17:13.442Z,12212
2017-09-19T11:18:13.415Z,12256
2017-09-19T11:19:13.410Z,12148
2017-09-19T11:20:13.411Z,11912
2017-09-19T11:21:13.091Z,11736
2017-09-19T11:22:13.398Z,11556
2017-09-19T11:23:13.398Z,11352
2017-09-19T11:24:13.081Z,11240
2017-09-19T11:25:13.713Z,11260
2017-09-19T11:26:13.382Z,11348
2017-09-19T11:27:13.047Z,11480
2017-09-19T11:28:13.044Z,11648
2017-09-19T11:29:13.372Z,11844
2017-09-19T11:30:13.362Z,12016
2017-09-19T11:31:13.360Z,12256
2017-09-19T11:32:13.680Z,12416
2017-09-19T11:33:13.362Z,12472
2017-09-19T11:34:13.357Z,12420
2017-09-19T11:35:13.065Z,12408
2017-09-19T11:36:13.336Z,12396
2017-09-19T11:37:13.328Z,12404
2017-09-19T11:38:13.326Z,12460
2017-09-19T11:39:13.326Z,12480
2017-09-19T11:40:13.319Z,12256
2017-09-19T11:41:13.370Z,11964
2017-09-19T11:42:13.329Z,11760
2017-09-19T11:43:13.654Z,11684
2017-09-19T11:44:12.971Z,11680
2017-09-19T11:45:13.627Z,11820
2017-09-19T11:46:13.289Z,11936
2017-09-19T11:47:13.293Z,11940
2017-09-19T11:48:13.612Z,11784
2017-09-19T11:49:13.299Z,11456
2017-09-19T11:50:13.597Z,10900
2017-09-19T11:51:12.937Z,10100
2017-09-19T11:52:13.262Z,9416
2017-09-19T11:53:13.262Z,8904
2017-09-19T11:54:12.949Z,8484
2017-09-19T11:55:13.252Z,8204
2017-09-19T11:56:13.572Z,8192
2017-09-19T11:57:13.241Z,8284
2017-09-19T11:58:12.911Z,8380
2017-09-19T11:59:13.563Z,8504
2017-09-19T12:00:12.921Z,8592
2017-09-19T12:01:13.883Z,8688
2017-09-19T12:02:12.893Z,8892
2017-09-19T12:03:13.892Z,9164
2017-09-19T12:04:13.221Z,9464
2017-09-19T12:05:13.214Z,9760
2017-09-19T12:06:12.878Z,9948
2017-09-19T12:07:13.543Z,10072
2017-09-19T12:08:13.196Z,10052
2017-09-19T12:09:12.862Z,10208
2017-09-19T12:10:13.185Z,10440
2017-09-19T12:11:12.851Z,10696
2017-09-19T12:12:13.500Z,10944
2017-09-19T12:13:13.173Z,11204
2017-09-19T12:14:12.837Z,11492
2017-09-19T12:15:13.507Z,11816
2017-09-19T12:16:13.156Z,11880
2017-09-19T12:17:12.826Z,11884
2017-09-19T12:18:13.480Z,11900
2017-09-19T12:19:13.158Z,11868
2017-09-19T12:20:13.142Z,11736
2017-09-19T12:21:13.133Z,11592
2017-09-19T12:22:12.812Z,11600
2017-09-19T12:23:12.824Z,11656
2017-09-19T12:24:13.453Z,11872
2017-09-19T12:25:13.458Z,11980
2017-09-19T12:26:13.778Z,11464
2017-09-19T12:27:13.443Z,11320
2017-09-19T12:28:13.103Z,10680
2017-09-19T12:29:13.121Z,9940
2017-09-19T12:30:13.100Z,8808
2017-09-19T12:31:12.775Z,8196
2017-09-19T12:32:13.093Z,7760
2017-09-19T12:33:13.085Z,7644
2017-09-19T12:34:12.791Z,7668
2017-09-19T12:35:13.079Z,7548
2017-09-19T12:36:13.737Z,7468
2017-09-19T12:37:13.075Z,7636
2017-09-19T12:38:12.736Z,8208
2017-09-19T12:39:13.078Z,8724
2017-09-19T12:40:13.067Z,8664
2017-09-19T12:41:13.386Z,8536
2017-09-19T12:42:12.724Z,8296
2017-09-19T12:43:13.051Z,8380
2017-09-19T12:44:13.374Z,8356
2017-09-19T12:45:12.709Z,7868
2017-09-19T12:46:13.376Z,7840
2017-09-19T12:47:13.710Z,8072
2017-09-19T12:48:13.353Z,8068
2017-09-19T12:49:12.691Z,7852
2017-09-19T12:50:13.045Z,7832
2017-09-19T12:51:13.015Z,7956
2017-09-19T12:52:13.031Z,8128
2017-09-19T12:53:12.696Z,8520
2017-09-19T12:54:13.015Z,8872
2017-09-19T12:55:12.692Z,8792
2017-09-19T12:56:13.011Z,8224
2017-09-19T12:57:13.003Z,7404
2017-09-19T12:58:13.346Z,6548
2017-09-19T12:59:12.652Z,5900
2017-09-19T13:00:13.632Z,5548
2017-09-19T13:01:12.644Z,5740
2017-09-19T13:02:13.625Z,6148
2017-09-19T13:03:12.633Z,6560
2017-09-19T13:04:12.980Z,6944
2017-09-19T13:05:12.972Z,7200
2017-09-19T13:06:13.280Z,7232
2017-09-19T13:07:12.656Z,7044
2017-09-19T13:08:12.663Z,6824
2017-09-19T13:09:13.265Z,6908
2017-09-19T13:10:13.257Z,7212
2017-09-19T13:11:12.925Z,7680
2017-09-19T13:12:12.593Z,8052
2017-09-19T13:13:12.603Z,8392
2017-09-19T13:14:13.241Z,8692
2017-09-19T13:15:12.578Z,8760
2017-09-19T13:16:12.902Z,8920
2017-09-19T13:17:12.963Z,9028
2017-09-19T13:18:12.573Z,9156
2017-09-19T13:19:12.569Z,9240
2017-09-19T13:20:12.879Z,9320
2017-09-19T13:21:12.564Z,9504
2017-09-19T13:22:13.211Z,9632
2017-09-19T13:23:12.550Z,9636
2017-09-19T13:24:13.194Z,9604
2017-09-19T13:25:13.185Z,9552
2017-09-19T13:26:12.854Z,9432
2017-09-19T13:27:12.717Z,9156
2017-09-19T13:28:13.167Z,8852
2017-09-19T13:29:12.839Z,8612
2017-09-19T13:30:12.526Z,8484
2017-09-19T13:31:12.840Z,8464
2017-09-19T13:32:13.167Z,8448
2017-09-19T13:33:12.486Z,8492
2017-09-19T13:34:12.498Z,8516
2017-09-19T13:35:12.805Z,8452
2017-09-19T13:36:13.129Z,8268
2017-09-19T13:37:12.799Z,8032
2017-09-19T13:38:12.475Z,7840
2017-09-19T13:39:12.479Z,7692
2017-09-19T13:40:12.800Z,7556
2017-09-19T13:41:12.450Z,7444
2017-09-19T13:42:13.102Z,7384
2017-09-19T13:43:12.440Z,7348
2017-09-19T13:44:12.450Z,7288